ZKCBM NZAR-NZAR

Flight info

Callsign ZKCBM
Flight time 0h 44m
Altitude 2500
Route G275 AR CIRCUITS
Aircraft C172/L-V/N

Departure

Time 2026-04-26 03:27
Airport Ardmore Airport (NZAR)

Arrival

Time 2026-04-26 04:11
Airport Ardmore Airport (NZAR)
Time Latitude Longitude Altitude Speed Heading
2026-04-26 03:09 -37.03614 174.97026 110 ft 0 kts 226°
2026-04-26 03:13 -37.03616 174.97023 110 ft 3 kts 227°
2026-04-26 03:13 -37.03620 174.97006 110 ft 0 kts 292°
2026-04-26 03:14 -37.03619 174.97003 110 ft 2 kts 304°
2026-04-26 03:14 -37.03603 174.96983 110 ft 3 kts 317°
2026-04-26 03:14 -37.03575 174.96951 110 ft 5 kts 316°
2026-04-26 03:14 -37.03549 174.96954 110 ft 3 kts
2026-04-26 03:15 -37.03534 174.96979 110 ft 5 kts 57°
2026-04-26 03:15 -37.03508 174.97012 110 ft 5 kts 44°
2026-04-26 03:15 -37.03481 174.97046 110 ft 5 kts 44°
2026-04-26 03:15 -37.03452 174.97081 110 ft 5 kts 45°
2026-04-26 03:16 -37.03418 174.97125 110 ft 8 kts 46°
2026-04-26 03:16 -37.03375 174.97182 110 ft 9 kts 46°
2026-04-26 03:16 -37.03334 174.97234 110 ft 9 kts 44°
2026-04-26 03:16 -37.03289 174.97292 110 ft 9 kts 46°
2026-04-26 03:17 -37.03245 174.97347 110 ft 8 kts 46°
2026-04-26 03:17 -37.03202 174.97401 110 ft 8 kts 42°
2026-04-26 03:17 -37.03159 174.97456 110 ft 8 kts 46°
2026-04-26 03:17 -37.03117 174.97511 110 ft 9 kts 46°
2026-04-26 03:18 -37.03070 174.97566 110 ft 9 kts 49°
2026-04-26 03:18 -37.03025 174.97627 110 ft 9 kts 45°
2026-04-26 03:18 -37.02978 174.97687 110 ft 9 kts 45°
2026-04-26 03:18 -37.02928 174.97749 110 ft 10 kts 46°
2026-04-26 03:19 -37.02877 174.97815 110 ft 9 kts 45°
2026-04-26 03:19 -37.02831 174.97873 110 ft 8 kts 49°
2026-04-26 03:19 -37.02806 174.97928 110 ft 5 kts 51°
2026-04-26 03:19 -37.02806 174.97935 110 ft 0 kts 223°
2026-04-26 03:22 -37.02820 174.97946 110 ft 7 kts 94°
2026-04-26 03:22 -37.02820 174.98029 110 ft 9 kts 91°
2026-04-26 03:22 -37.02819 174.98090 110 ft 5 kts 90°
2026-04-26 03:22 -37.02803 174.98132 110 ft 7 kts 358°
2026-04-26 03:23 -37.02758 174.98109 110 ft 6 kts 333°
2026-04-26 03:23 -37.02718 174.98085 110 ft 5 kts 333°
2026-04-26 03:23 -37.02692 174.98068 110 ft 0 kts
2026-04-26 03:24 -37.02690 174.98068 110 ft 2 kts 343°
2026-04-26 03:24 -37.02659 174.98042 110 ft 7 kts 322°
2026-04-26 03:24 -37.02652 174.98000 110 ft 3 kts 224°
2026-04-26 03:24 -37.02654 174.97995 110 ft 0 kts 224°
2026-04-26 03:25 -37.02756 174.97865 110 ft 50 kts 225°
2026-04-26 03:25 -37.03082 174.97476 233 ft 70 kts 224°
2026-04-26 03:25 -37.03447 174.97041 436 ft 74 kts 224°
2026-04-26 03:25 -37.03838 174.96590 633 ft 73 kts 228°
2026-04-26 03:26 -37.04087 174.96140 556 ft 59 kts 253°
2026-04-26 03:26 -37.04134 174.95659 416 ft 55 kts 278°
2026-04-26 03:26 -37.04156 174.95120 381 ft 74 kts 236°
2026-04-26 03:26 -37.04592 174.94716 544 ft 82 kts 211°
2026-04-26 03:27 -37.05141 174.94452 749 ft 84 kts 195°
2026-04-26 03:27 -37.05708 174.94351 969 ft 85 kts 187°
2026-04-26 03:27 -37.06316 174.94333 1148 ft 89 kts 187°
2026-04-26 03:27 -37.06972 174.94348 1276 ft 97 kts 180°
2026-04-26 03:28 -37.07674 174.94447 1356 ft 106 kts 174°
2026-04-26 03:28 -37.08424 174.94592 1426 ft 111 kts 174°
2026-04-26 03:28 -37.09201 174.94771 1484 ft 114 kts 173°
2026-04-26 03:28 -37.09992 174.94994 1521 ft 118 kts 168°
2026-04-26 03:29 -37.10783 174.95303 1584 ft 117 kts 166°
2026-04-26 03:29 -37.11549 174.95609 1664 ft 116 kts 166°
2026-04-26 03:29 -37.12323 174.95949 1709 ft 117 kts 164°
2026-04-26 03:29 -37.13081 174.96292 1764 ft 117 kts 165°
2026-04-26 03:30 -37.13858 174.96640 1816 ft 117 kts 163°
2026-04-26 03:30 -37.14625 174.96995 1870 ft 117 kts 163°
2026-04-26 03:30 -37.15391 174.97357 1921 ft 118 kts 163°
2026-04-26 03:30 -37.16171 174.97710 1951 ft 116 kts 167°
2026-04-26 03:31 -37.16911 174.97949 1966 ft 105 kts 171°
2026-04-26 03:31 -37.17605 174.98155 1981 ft 101 kts 170°
2026-04-26 03:31 -37.18297 174.98431 2003 ft 107 kts 162°
2026-04-26 03:31 -37.18925 174.98918 2212 ft 105 kts 141°
2026-04-26 03:32 -37.19297 174.99692 2406 ft 106 kts 119°
2026-04-26 03:32 -37.19597 175.00572 2462 ft 114 kts 118°
2026-04-26 03:32 -37.19943 175.01471 2471 ft 115 kts 122°
2026-04-26 03:32 -37.20329 175.02342 2545 ft 111 kts 124°
2026-04-26 03:33 -37.20710 175.03180 2566 ft 112 kts 124°
2026-04-26 03:33 -37.21109 175.04040 2587 ft 113 kts 124°
2026-04-26 03:33 -37.21485 175.04898 2621 ft 113 kts 123°
2026-04-26 03:33 -37.21861 175.05785 2632 ft 115 kts 118°
2026-04-26 03:34 -37.22029 175.06766 2586 ft 117 kts 94°
2026-04-26 03:34 -37.21991 175.07776 2585 ft 112 kts 89°
2026-04-26 03:34 -37.21938 175.08740 2544 ft 112 kts 89°
2026-04-26 03:34 -37.21865 175.09711 2525 ft 111 kts 86°
2026-04-26 03:35 -37.21829 175.10683 2484 ft 106 kts 96°
2026-04-26 03:35 -37.21864 175.11459 2544 ft 69 kts 101°
2026-04-26 03:35 -37.21917 175.12073 2423 ft 90 kts 100°
2026-04-26 03:35 -37.21952 175.12965 2468 ft 108 kts 92°
2026-04-26 03:36 -37.21956 175.13902 2551 ft 94 kts 96°
2026-04-26 03:36 -37.21978 175.14531 2615 ft 61 kts 103°
2026-04-26 03:36 -37.22055 175.15286 2515 ft 102 kts 103°
2026-04-26 03:36 -37.22201 175.16246 2513 ft 116 kts 104°
2026-04-26 03:37 -37.22352 175.17082 2642 ft 75 kts 109°
2026-04-26 03:37 -37.22459 175.17650 2570 ft 81 kts 112°
2026-04-26 03:37 -37.22703 175.18424 2553 ft 104 kts 128°
2026-04-26 03:37 -37.23204 175.19089 2631 ft 105 kts 152°
2026-04-26 03:38 -37.23883 175.19142 2575 ft 105 kts 225°
2026-04-26 03:38 -37.24097 175.18245 2499 ft 108 kts 260°
2026-04-26 03:38 -37.24189 175.17335 2439 ft 104 kts 263°
2026-04-26 03:38 -37.24093 175.16460 2432 ft 99 kts 285°
2026-04-26 03:39 -37.23845 175.15651 2395 ft 99 kts 288°
2026-04-26 03:39 -37.23596 175.14856 2383 ft 98 kts 287°
2026-04-26 03:39 -37.23371 175.14044 2386 ft 98 kts 284°
2026-04-26 03:39 -37.23319 175.13238 2415 ft 92 kts 240°
2026-04-26 03:40 -37.23902 175.13005 2356 ft 104 kts 162°
2026-04-26 03:40 -37.24222 175.13802 2320 ft 117 kts 77°
2026-04-26 03:40 -37.23613 175.14421 2249 ft 118 kts
2026-04-26 03:40 -37.23001 175.13931 2202 ft 107 kts 288°
2026-04-26 03:41 -37.22787 175.13046 2167 ft 105 kts 282°
2026-04-26 03:41 -37.22592 175.12172 2177 ft 102 kts 283°
2026-04-26 03:41 -37.22398 175.11327 2174 ft 101 kts 281°
2026-04-26 03:41 -37.22230 175.10465 2138 ft 102 kts 280°
2026-04-26 03:42 -37.22055 175.09604 2116 ft 103 kts 281°
2026-04-26 03:42 -37.21776 175.08784 2106 ft 105 kts 317°
2026-04-26 03:42 -37.21056 175.08847 2043 ft 118 kts 44°
2026-04-26 03:42 -37.20952 175.09778 2041 ft 111 kts 126°
2026-04-26 03:43 -37.21589 175.09996 2011 ft 100 kts 214°
2026-04-26 03:43 -37.21738 175.09207 1987 ft 101 kts 279°
2026-04-26 03:43 -37.21585 175.08362 2166 ft 98 kts 278°
2026-04-26 03:43 -37.21442 175.07550 2395 ft 91 kts 278°
2026-04-26 03:44 -37.21306 175.06764 2543 ft 95 kts 276°
2026-04-26 03:44 -37.21199 175.05919 2660 ft 97 kts 254°
2026-04-26 03:44 -37.21695 175.05576 2855 ft 95 kts 175°
2026-04-26 03:44 -37.22272 175.06067 2885 ft 111 kts 126°
2026-04-26 03:45 -37.22566 175.06970 2852 ft 111 kts 115°
2026-04-26 03:45 -37.22855 175.07858 2826 ft 110 kts 116°
2026-04-26 03:45 -37.23136 175.08762 2777 ft 104 kts 117°
2026-04-26 03:45 -37.23374 175.09492 2777 ft 77 kts 118°
2026-04-26 03:46 -37.23526 175.10030 2762 ft 57 kts 121°
2026-04-26 03:46 -37.23676 175.10492 2740 ft 57 kts 133°
2026-04-26 03:46 -37.23850 175.10956 2800 ft 58 kts 139°
2026-04-26 03:47 -37.24388 175.11650 2897 ft 65 kts 151°
2026-04-26 03:47 -37.24827 175.12163 2798 ft 103 kts 137°
2026-04-26 03:47 -37.25331 175.12868 2804 ft 108 kts 136°
2026-04-26 03:47 -37.25930 175.13396 2783 ft 104 kts 163°
2026-04-26 03:48 -37.26595 175.13724 2776 ft 102 kts 163°
2026-04-26 03:48 -37.27276 175.14050 2722 ft 103 kts 164°
2026-04-26 03:48 -37.27833 175.14336 2753 ft 67 kts 165°
2026-04-26 03:48 -37.28188 175.14552 2743 ft 53 kts 166°
2026-04-26 03:49 -37.28518 175.14761 2736 ft 50 kts 172°
2026-04-26 03:49 -37.28845 175.14926 2699 ft 52 kts 171°
2026-04-26 03:49 -37.29187 175.15034 2708 ft 47 kts 187°
2026-04-26 03:49 -37.29607 175.15068 2687 ft 77 kts 189°
2026-04-26 03:50 -37.30153 175.14798 2635 ft 95 kts 250°
2026-04-26 03:50 -37.30020 175.13922 2582 ft 112 kts 285°
2026-04-26 03:50 -37.29759 175.13031 2553 ft 105 kts 288°
2026-04-26 03:50 -37.29489 175.12207 2531 ft 97 kts 289°
2026-04-26 03:51 -37.29408 175.11525 2581 ft 75 kts 236°
2026-04-26 03:51 -37.29708 175.11133 2645 ft 47 kts 233°
2026-04-26 03:51 -37.29872 175.10812 2615 ft 43 kts 250°
2026-04-26 03:51 -37.29973 175.10423 2566 ft 59 kts 259°
2026-04-26 03:52 -37.30098 175.09727 2475 ft 95 kts 257°
2026-04-26 03:52 -37.30001 175.08833 2454 ft 112 kts 284°
2026-04-26 03:52 -37.29773 175.07919 2450 ft 106 kts 284°
2026-04-26 03:52 -37.29546 175.07062 2417 ft 103 kts 285°
2026-04-26 03:53 -37.29506 175.06201 2375 ft 99 kts 242°
2026-04-26 03:53 -37.30109 175.05858 2316 ft 107 kts 171°
2026-04-26 03:53 -37.30552 175.06576 2269 ft 117 kts 94°
2026-04-26 03:53 -37.30123 175.07376 2239 ft 115 kts 15°
2026-04-26 03:54 -37.29456 175.07077 2148 ft 107 kts 298°
2026-04-26 03:54 -37.29280 175.06168 1987 ft 111 kts 272°
2026-04-26 03:54 -37.29171 175.05240 1945 ft 105 kts 282°
2026-04-26 03:54 -37.28614 175.04759 1955 ft 113 kts
2026-04-26 03:55 -37.28212 175.05510 1969 ft 112 kts 105°
2026-04-26 03:55 -37.28762 175.06006 1914 ft 103 kts 194°
2026-04-26 03:55 -37.29105 175.05359 1919 ft 99 kts 273°
2026-04-26 03:55 -37.28909 175.04529 1931 ft 103 kts 296°
2026-04-26 03:56 -37.28178 175.04301 1871 ft 126 kts 22°
2026-04-26 03:56 -37.27411 175.04842 1809 ft 123 kts 29°
2026-04-26 03:56 -37.26698 175.05403 1757 ft 117 kts 30°
2026-04-26 03:56 -37.26017 175.05893 1800 ft 106 kts 23°
2026-04-26 03:57 -37.25312 175.06262 1773 ft 110 kts 18°
2026-04-26 03:57 -37.24599 175.06602 1772 ft 113 kts 17°
2026-04-26 03:57 -37.23844 175.06928 1756 ft 114 kts 15°
2026-04-26 03:57 -37.23085 175.07225 1744 ft 115 kts 13°
2026-04-26 03:58 -37.22311 175.07501 1736 ft 115 kts 12°
2026-04-26 03:58 -37.21558 175.07829 1723 ft 116 kts 21°
2026-04-26 03:58 -37.20826 175.08292 1721 ft 116 kts 26°
2026-04-26 03:58 -37.20123 175.08795 1688 ft 117 kts 27°
2026-04-26 03:59 -37.19414 175.09303 1707 ft 115 kts 26°
2026-04-26 03:59 -37.18711 175.09831 1663 ft 117 kts 30°
2026-04-26 03:59 -37.18029 175.10399 1656 ft 117 kts 31°
2026-04-26 03:59 -37.17332 175.10907 1660 ft 114 kts 25°
2026-04-26 04:00 -37.16618 175.11334 1655 ft 113 kts 20°
2026-04-26 04:00 -37.15874 175.11655 1630 ft 114 kts
2026-04-26 04:00 -37.15080 175.11736 1612 ft 112 kts 355°
2026-04-26 04:00 -37.14321 175.11639 1597 ft 110 kts 344°
2026-04-26 04:01 -37.13567 175.11401 1578 ft 110 kts 339°
2026-04-26 04:01 -37.12832 175.11112 1555 ft 110 kts 338°
2026-04-26 04:01 -37.12109 175.10818 1531 ft 110 kts 336°
2026-04-26 04:01 -37.11386 175.10489 1501 ft 109 kts 334°
2026-04-26 04:02 -37.10690 175.10089 1478 ft 109 kts 328°
2026-04-26 04:02 -37.10028 175.09608 1456 ft 108 kts 325°
2026-04-26 04:02 -37.09389 175.09111 1408 ft 110 kts 322°
2026-04-26 04:02 -37.08772 175.08548 1397 ft 107 kts 319°
2026-04-26 04:03 -37.08173 175.07974 1370 ft 107 kts 318°
2026-04-26 04:03 -37.07563 175.07426 1339 ft 108 kts 324°
2026-04-26 04:03 -37.06900 175.06941 1385 ft 111 kts 328°
2026-04-26 04:03 -37.06224 175.06483 1512 ft 111 kts 326°
2026-04-26 04:04 -37.05563 175.05971 1617 ft 112 kts 323°
2026-04-26 04:04 -37.04919 175.05426 1621 ft 108 kts 317°
2026-04-26 04:04 -37.04417 175.04753 1592 ft 107 kts 304°
2026-04-26 04:04 -37.04001 175.03992 1556 ft 104 kts 295°
2026-04-26 04:05 -37.03656 175.03191 1528 ft 102 kts 292°
2026-04-26 04:05 -37.03383 175.02382 1512 ft 100 kts 285°
2026-04-26 04:05 -37.03124 175.01599 1562 ft 95 kts 289°
2026-04-26 04:05 -37.02880 175.00829 1560 ft 96 kts 286°
2026-04-26 04:06 -37.02652 175.00041 1552 ft 96 kts 285°
2026-04-26 04:06 -37.02435 174.99242 1559 ft 96 kts 284°
2026-04-26 04:06 -37.02206 174.98463 1506 ft 95 kts 290°
2026-04-26 04:06 -37.01920 174.97707 1282 ft 97 kts 288°
2026-04-26 04:07 -37.01864 174.96893 1060 ft 96 kts 256°
2026-04-26 04:07 -37.02285 174.96301 1028 ft 97 kts 199°
2026-04-26 04:07 -37.02943 174.96356 1111 ft 99 kts 161°
2026-04-26 04:07 -37.03542 174.96849 1160 ft 101 kts 148°
2026-04-26 04:08 -37.04113 174.97386 1197 ft 103 kts 147°
2026-04-26 04:08 -37.04479 174.98149 1115 ft 121 kts 85°
2026-04-26 04:08 -37.04098 174.99059 1141 ft 107 kts 50°
2026-04-26 04:08 -37.03608 174.99699 1114 ft 102 kts 48°
2026-04-26 04:09 -37.03159 175.00369 1143 ft 102 kts 47°
2026-04-26 04:09 -37.02671 175.00935 1130 ft 84 kts 13°
2026-04-26 04:09 -37.02162 175.00781 987 ft 72 kts 330°
2026-04-26 04:09 -37.01751 175.00452 947 ft 71 kts 307°
2026-04-26 04:10 -37.01465 175.00001 871 ft 58 kts 281°
2026-04-26 04:10 -37.01545 174.99536 719 ft 54 kts 242°
2026-04-26 04:10 -37.01751 174.99149 569 ft 54 kts 230°
2026-04-26 04:10 -37.02020 174.98817 418 ft 53 kts 228°
2026-04-26 04:11 -37.02277 174.98485 320 ft 54 kts 229°
2026-04-26 04:11 -37.02540 174.98143 222 ft 54 kts 228°
2026-04-26 04:11 -37.02800 174.97813 114 ft 47 kts 229°
2026-04-26 04:11 -37.03005 174.97554 115 ft 52 kts 226°
2026-04-26 04:12 -37.03300 174.97183 260 ft 67 kts 228°
2026-04-26 04:12 -37.03634 174.96771 460 ft 71 kts 224°
2026-04-26 04:12 -37.04004 174.96286 607 ft 82 kts 227°
2026-04-26 04:12 -37.04459 174.95892 848 ft 83 kts 187°
2026-04-26 04:13 -37.04989 174.96219 1059 ft 91 kts 143°
2026-04-26 04:13 -37.05196 174.96950 1159 ft 110 kts 67°
2026-04-26 04:13 -37.04780 174.97803 1123 ft 114 kts 57°
2026-04-26 04:13 -37.04310 174.98596 1140 ft 112 kts 51°
2026-04-26 04:14 -37.03811 174.99344 1164 ft 109 kts 45°
2026-04-26 04:14 -37.03260 175.00024 1154 ft 105 kts 44°
2026-04-26 04:14 -37.02718 175.00105 1065 ft 76 kts 319°
2026-04-26 04:14 -37.02323 174.99742 949 ft 68 kts 314°
2026-04-26 04:15 -37.01975 174.99377 837 ft 65 kts 312°
2026-04-26 04:15 -37.01892 174.98879 601 ft 62 kts 244°
2026-04-26 04:15 -37.02165 174.98488 427 ft 57 kts 227°
2026-04-26 04:15 -37.02430 174.98143 296 ft 54 kts 229°
2026-04-26 04:16 -37.02688 174.97813 177 ft 52 kts 227°
2026-04-26 04:16 -37.02926 174.97504 110 ft 40 kts 228°
2026-04-26 04:16 -37.03197 174.97156 180 ft 67 kts 230°
2026-04-26 04:16 -37.03511 174.96715 391 ft 69 kts 232°
2026-04-26 04:17 -37.03833 174.96216 542 ft 80 kts 233°
2026-04-26 04:17 -37.04291 174.95952 809 ft 83 kts 160°
2026-04-26 04:17 -37.04797 174.96390 979 ft 92 kts 149°
2026-04-26 04:17 -37.04986 174.97157 1123 ft 108 kts 72°
2026-04-26 04:18 -37.04606 174.98016 1115 ft 113 kts 57°
2026-04-26 04:18 -37.04158 174.98824 1150 ft 112 kts 53°
2026-04-26 04:18 -37.03684 174.99593 1184 ft 111 kts 47°
2026-04-26 04:18 -37.03145 175.00209 1133 ft 96 kts 20°
2026-04-26 04:19 -37.02600 175.00017 991 ft 73 kts 321°
2026-04-26 04:19 -37.02213 174.99648 880 ft 71 kts 314°
2026-04-26 04:19 -37.01871 174.99258 756 ft 61 kts 292°
2026-04-26 04:19 -37.01955 174.98795 567 ft 58 kts 225°
2026-04-26 04:20 -37.02213 174.98448 435 ft 53 kts 229°
2026-04-26 04:20 -37.02460 174.98111 296 ft 52 kts 229°
2026-04-26 04:20 -37.02709 174.97784 182 ft 52 kts 229°
2026-04-26 04:20 -37.02945 174.97476 109 ft 40 kts 229°
2026-04-26 04:21 -37.03222 174.97133 207 ft 65 kts 228°
2026-04-26 04:21 -37.03528 174.96699 408 ft 69 kts 230°
2026-04-26 04:21 -37.03867 174.96243 613 ft 73 kts 230°
2026-04-26 04:21 -37.04303 174.95918 851 ft 78 kts 179°
2026-04-26 04:22 -37.04700 174.96147 987 ft 87 kts 148°
2026-04-26 04:22 -37.05081 174.96777 1082 ft 108 kts 91°
2026-04-26 04:22 -37.04773 174.97667 1094 ft 115 kts 58°
2026-04-26 04:22 -37.04307 174.98482 1087 ft 115 kts 50°
2026-04-26 04:23 -37.03809 174.99232 1171 ft 107 kts 49°
2026-04-26 04:23 -37.03404 174.99843 1173 ft 79 kts 38°
2026-04-26 04:23 -37.02931 175.00133 1038 ft 74 kts 15°
2026-04-26 04:23 -37.02475 175.00063 879 ft 66 kts 309°
2026-04-26 04:24 -37.02253 174.99582 725 ft 62 kts 283°
2026-04-26 04:24 -37.02187 174.99068 570 ft 55 kts 265°
2026-04-26 04:24 -37.02311 174.98637 402 ft 51 kts 244°
2026-04-26 04:24 -37.02488 174.98256 240 ft 50 kts 236°
2026-04-26 04:25 -37.02741 174.97893 313 ft 57 kts 225°
2026-04-26 04:25 -37.03102 174.97530 430 ft 74 kts 220°
2026-04-26 04:25 -37.03502 174.97096 635 ft 75 kts 220°
2026-04-26 04:25 -37.03985 174.96845 845 ft 83 kts 175°
2026-04-26 04:26 -37.04443 174.97339 983 ft 100 kts 109°
2026-04-26 04:26 -37.04357 174.98248 1053 ft 111 kts 65°
2026-04-26 04:26 -37.03949 174.99014 1132 ft 104 kts 52°
2026-04-26 04:26 -37.03492 174.99623 1131 ft 85 kts 32°
2026-04-26 04:27 -37.03006 174.99908 1026 ft 73 kts
2026-04-26 04:27 -37.02542 174.99759 863 ft 67 kts 315°
2026-04-26 04:27 -37.02317 174.99293 705 ft 61 kts 277°
2026-04-26 04:27 -37.02349 174.98789 535 ft 59 kts 259°
2026-04-26 04:28 -37.02457 174.98326 368 ft 54 kts 247°
2026-04-26 04:28 -37.02699 174.97943 157 ft 57 kts 230°
2026-04-26 04:28 -37.02933 174.97646 109 ft 37 kts 227°
2026-04-26 04:28 -37.03070 174.97466 109 ft 19 kts 225°
2026-04-26 04:29 -37.03140 174.97401 109 ft 8 kts 156°
2026-04-26 04:29 -37.03167 174.97429 109 ft 2 kts 139°
2026-04-26 04:29 -37.03194 174.97411 109 ft 6 kts 228°
2026-04-26 04:29 -37.03225 174.97371 109 ft 6 kts 224°
2026-04-26 04:30 -37.03257 174.97330 109 ft 6 kts 227°
2026-04-26 04:30 -37.03291 174.97287 109 ft 6 kts 225°
2026-04-26 04:30 -37.03325 174.97244 109 ft 7 kts 225°
2026-04-26 04:30 -37.03361 174.97198 109 ft 7 kts 226°
2026-04-26 04:31 -37.03397 174.97154 109 ft 7 kts 224°
2026-04-26 04:31 -37.03434 174.97105 109 ft 7 kts 227°
2026-04-26 04:31 -37.03472 174.97058 109 ft 7 kts 224°
2026-04-26 04:31 -37.03510 174.97008 109 ft 8 kts 228°
2026-04-26 04:32 -37.03545 174.96953 109 ft 8 kts 223°
2026-04-26 04:32 -37.03586 174.96964 109 ft 5 kts 138°
2026-04-26 04:32 -37.03612 174.96994 109 ft 3 kts 138°
2026-04-26 04:32 -37.03626 174.97009 109 ft 1 kts 155°
2026-04-26 04:33 -37.03639 174.96995 109 ft 3 kts 227°
2026-04-26 04:33 -37.03641 174.96992 109 ft 0 kts 224°